createdAt,value
2022-11-04T00:01:30.424Z,11.70
2022-11-04T00:03:58.060Z,11.70
2022-11-04T00:06:25.685Z,11.60
2022-11-04T00:08:53.414Z,11.60
2022-11-04T00:11:39.278Z,11.50
2022-11-04T00:14:07.386Z,11.40
2022-11-04T00:16:53.584Z,11.40
2022-11-04T00:19:20.426Z,11.40
2022-11-04T00:22:06.077Z,11.30
2022-11-04T00:24:52.407Z,11.20
2022-11-04T00:27:39.749Z,11.20
2022-11-04T00:30:10.407Z,11.20
2022-11-04T00:32:58.176Z,11.20
2022-11-04T00:35:25.754Z,11.10
2022-11-04T00:37:53.531Z,11.10
2022-11-04T00:40:20.316Z,11.10
2022-11-04T00:42:47.396Z,11.00
2022-11-04T00:45:15.427Z,11.00
2022-11-04T00:47:42.226Z,11.00
2022-11-04T00:50:10.180Z,11.00
2022-11-04T00:52:37.991Z,11.00
2022-11-04T00:55:06.645Z,11.00
2022-11-04T00:57:34.493Z,10.90
2022-11-04T01:00:02.077Z,10.90
2022-11-04T01:02:30.896Z,10.90
2022-11-04T01:04:57.944Z,11.00
2022-11-04T01:07:25.948Z,10.90
2022-11-04T01:09:53.567Z,10.90
2022-11-04T01:12:22.272Z,10.80
2022-11-04T01:14:50.937Z,10.80
2022-11-04T01:17:18.528Z,10.80
2022-11-04T01:19:47.163Z,10.90
2022-11-04T01:22:16.770Z,11.00
2022-11-04T01:24:44.713Z,11.00
2022-11-04T01:27:14.470Z,11.20
2022-11-04T01:29:43.217Z,11.30
2022-11-04T01:32:10.815Z,11.50
2022-11-04T01:34:43.308Z,11.60
2022-11-04T01:37:13.181Z,11.80
2022-11-04T01:39:41.777Z,12.00
2022-11-04T01:42:11.581Z,12.00
2022-11-04T01:44:42.871Z,12.20
2022-11-04T01:47:19.926Z,12.30
2022-11-04T01:49:52.672Z,12.30
2022-11-04T01:52:26.988Z,12.40
2022-11-04T01:54:56.073Z,12.50
2022-11-04T01:57:29.745Z,12.50
2022-11-04T01:59:59.389Z,12.60
2022-11-04T02:02:27.234Z,12.60
2022-11-04T02:04:54.717Z,12.70
2022-11-04T02:07:24.345Z,12.70
2022-11-04T02:09:51.939Z,12.70
2022-11-04T02:12:38.620Z,12.80
2022-11-04T02:15:06.177Z,12.90
2022-11-04T02:17:39.235Z,12.80
2022-11-04T02:20:10.805Z,12.80
2022-11-04T02:22:47.395Z,12.70
2022-11-04T02:25:32.512Z,12.70
2022-11-04T02:28:06.267Z,12.70
2022-11-04T02:30:39.709Z,12.70
2022-11-04T02:33:15.625Z,12.70
2022-11-04T02:36:03.380Z,12.70
2022-11-04T02:38:32.434Z,12.70
2022-11-04T02:41:15.297Z,12.70
2022-11-04T02:43:48.371Z,12.70
2022-11-04T02:46:24.514Z,12.70
2022-11-04T02:49:08.368Z,12.70
2022-11-04T02:51:55.378Z,12.70
2022-11-04T02:54:32.140Z,12.60
2022-11-04T02:57:01.606Z,12.60
2022-11-04T02:59:35.917Z,12.70
2022-11-04T03:02:06.577Z,12.70
2022-11-04T03:04:38.731Z,12.70
2022-11-04T03:07:09.053Z,12.70
2022-11-04T03:09:37.372Z,12.70
2022-11-04T03:12:06.350Z,12.80
2022-11-04T03:14:40.282Z,12.80
2022-11-04T03:17:09.968Z,12.80
2022-11-04T03:19:45.637Z,12.70
2022-11-04T03:22:34.357Z,12.70
2022-11-04T03:25:01.693Z,12.70
2022-11-04T03:27:40.639Z,12.80
2022-11-04T03:30:12.052Z,12.70
2022-11-04T03:32:42.335Z,12.70
2022-11-04T03:35:10.505Z,12.80
2022-11-04T03:37:40.119Z,12.80
2022-11-04T03:40:09.732Z,12.90
2022-11-04T03:42:40.358Z,12.90
2022-11-04T03:45:07.517Z,12.90
2022-11-04T03:47:35.422Z,12.90
2022-11-04T03:50:08.650Z,12.90
2022-11-04T03:52:36.069Z,12.90
2022-11-04T03:55:04.766Z,12.90
2022-11-04T03:57:54.051Z,12.90
2022-11-04T04:00:22.986Z,12.90
2022-11-04T04:02:50.113Z,13.00
2022-11-04T04:05:26.838Z,13.00
2022-11-04T04:07:55.656Z,13.00
2022-11-04T04:10:40.387Z,13.10
2022-11-04T04:13:24.313Z,13.00
2022-11-04T04:15:58.357Z,13.00
2022-11-04T04:18:38.301Z,13.00
2022-11-04T04:21:08.711Z,13.00
2022-11-04T04:23:56.107Z,12.90
2022-11-04T04:26:43.503Z,12.80
2022-11-04T04:29:11.944Z,12.80
2022-11-04T04:31:52.456Z,12.70
2022-11-04T04:34:23.460Z,12.70
2022-11-04T04:36:57.683Z,12.70
2022-11-04T04:39:47.485Z,12.70
2022-11-04T04:42:34.175Z,12.80
2022-11-04T04:45:09.044Z,12.80
2022-11-04T04:47:41.395Z,12.80
2022-11-04T04:50:11.293Z,12.80
2022-11-04T04:52:40.905Z,12.80
2022-11-04T04:55:10.685Z,12.80
2022-11-04T04:57:38.315Z,12.90
2022-11-04T05:00:06.990Z,12.90
2022-11-04T05:02:34.899Z,12.90
2022-11-04T05:05:02.624Z,12.90
2022-11-04T05:07:30.175Z,12.80
2022-11-04T05:09:57.824Z,12.80
2022-11-04T05:12:25.477Z,12.80
2022-11-04T05:14:53.057Z,12.80
2022-11-04T05:17:20.810Z,12.70
2022-11-04T05:19:48.064Z,12.70
2022-11-04T05:22:16.246Z,12.70
2022-11-04T05:24:44.032Z,12.70
2022-11-04T05:27:12.752Z,12.70
2022-11-04T05:29:41.425Z,12.70
2022-11-04T05:32:09.095Z,12.70
2022-11-04T05:34:36.169Z,12.70
2022-11-04T05:37:03.445Z,12.70
2022-11-04T05:39:33.122Z,12.70
2022-11-04T05:42:02.323Z,12.70
2022-11-04T05:44:29.921Z,12.70
2022-11-04T05:46:57.515Z,12.60
2022-11-04T05:49:25.190Z,12.50
2022-11-04T05:51:52.873Z,12.40
2022-11-04T05:54:19.617Z,12.40
2022-11-04T05:56:48.180Z,12.40
2022-11-04T05:59:15.973Z,12.40
2022-11-04T06:01:44.677Z,12.40
2022-11-04T06:04:16.119Z,12.40
2022-11-04T06:06:44.851Z,12.40
2022-11-04T06:09:12.535Z,12.40
2022-11-04T06:11:41.188Z,12.40
2022-11-04T06:14:08.793Z,12.40
2022-11-04T06:16:37.323Z,12.40
2022-11-04T06:19:08.614Z,12.20
2022-11-04T06:21:40.346Z,12.20
2022-11-04T06:24:09.024Z,12.20
2022-11-04T06:26:36.600Z,12.20
2022-11-04T06:29:04.248Z,12.20
2022-11-04T06:31:32.976Z,12.20
2022-11-04T06:34:00.625Z,12.10
2022-11-04T06:36:28.301Z,12.10
2022-11-04T06:39:01.354Z,12.20
2022-11-04T06:41:30.348Z,12.20
2022-11-04T06:44:01.627Z,12.20
2022-11-04T06:46:32.936Z,12.20
2022-11-04T06:49:00.923Z,12.20
2022-11-04T06:51:29.578Z,12.10
2022-11-04T06:53:58.289Z,12.10
2022-11-04T06:56:26.074Z,12.10
2022-11-04T06:58:54.671Z,12.10
2022-11-04T07:01:23.437Z,12.10
2022-11-04T07:03:51.959Z,12.00
2022-11-04T07:06:20.111Z,12.10
2022-11-04T07:08:47.467Z,12.00
2022-11-04T07:11:15.510Z,11.90
2022-11-04T07:13:43.702Z,11.90
2022-11-04T07:16:12.300Z,11.90
2022-11-04T07:18:39.895Z,11.90
2022-11-04T07:21:10.139Z,11.90
2022-11-04T07:23:37.922Z,11.90
2022-11-04T07:26:06.446Z,11.90
2022-11-04T07:28:33.492Z,11.90
2022-11-04T07:31:01.951Z,11.90
2022-11-04T07:33:28.901Z,11.90
2022-11-04T07:35:58.110Z,11.80
2022-11-04T07:38:26.301Z,11.80
2022-11-04T07:40:53.322Z,11.80
2022-11-04T07:43:20.675Z,11.80
2022-11-04T07:45:47.470Z,11.80
2022-11-04T07:48:14.907Z,11.70
2022-11-04T07:50:43.770Z,11.60
2022-11-04T07:53:12.509Z,11.60
2022-11-04T07:55:43.393Z,11.60
2022-11-04T07:58:16.192Z,11.70
2022-11-04T08:00:45.925Z,11.70
2022-11-04T08:03:13.578Z,11.60
2022-11-04T08:05:42.035Z,11.60
2022-11-04T08:08:09.695Z,11.60
2022-11-04T08:10:37.487Z,11.60
2022-11-04T08:13:07.258Z,11.70
2022-11-04T08:15:36.735Z,11.80
2022-11-04T08:18:04.344Z,11.80
2022-11-04T08:20:31.953Z,11.80
2022-11-04T08:23:00.704Z,11.80
2022-11-04T08:25:28.461Z,11.60
2022-11-04T08:28:01.076Z,11.50
2022-11-04T08:30:28.825Z,11.50
2022-11-04T08:32:57.463Z,11.60
2022-11-04T08:35:25.304Z,11.60
2022-11-04T08:37:53.085Z,11.70
2022-11-04T08:40:20.689Z,11.70
2022-11-04T08:42:48.359Z,11.70
2022-11-04T08:45:17.003Z,11.90
2022-11-04T08:47:44.664Z,11.90
2022-11-04T08:50:13.424Z,11.90
2022-11-04T08:52:40.855Z,11.90
2022-11-04T08:55:10.662Z,12.00
2022-11-04T08:57:38.392Z,12.00
2022-11-04T09:00:07.091Z,12.00
2022-11-04T09:02:36.014Z,12.10
2022-11-04T09:05:03.689Z,12.10
2022-11-04T09:07:36.069Z,12.10
2022-11-04T09:10:04.086Z,12.20
2022-11-04T09:12:32.107Z,12.20
2022-11-04T09:15:00.691Z,12.10
2022-11-04T09:17:29.447Z,12.10
2022-11-04T09:19:58.065Z,12.10
2022-11-04T09:22:26.694Z,12.10
2022-11-04T09:24:54.332Z,12.10
2022-11-04T09:27:22.221Z,12.10
2022-11-04T09:29:51.982Z,12.10
2022-11-04T09:32:19.672Z,12.00
2022-11-04T09:34:49.367Z,12.00
2022-11-04T09:37:16.973Z,12.10
2022-11-04T09:39:47.851Z,12.00
2022-11-04T09:42:41.847Z,12.10
2022-11-04T09:45:21.850Z,12.10
2022-11-04T09:47:51.218Z,12.10
2022-11-04T09:50:21.348Z,12.10
2022-11-04T09:52:51.615Z,12.10
2022-11-04T09:55:25.073Z,12.20
2022-11-04T09:57:55.576Z,12.00
2022-11-04T10:00:23.262Z,12.00
2022-11-04T10:02:51.035Z,12.00
2022-11-04T10:05:28.844Z,12.10
2022-11-04T10:07:59.576Z,12.10
2022-11-04T10:10:30.749Z,12.20
2022-11-04T10:13:16.988Z,12.20
2022-11-04T10:15:51.706Z,12.10
2022-11-04T10:18:22.333Z,12.20
2022-11-04T10:20:55.964Z,12.20
2022-11-04T10:23:26.624Z,12.20
2022-11-04T10:26:09.890Z,12.20
2022-11-04T10:28:57.684Z,12.30
2022-11-04T10:31:25.567Z,12.30
2022-11-04T10:33:55.219Z,12.40
2022-11-04T10:36:25.312Z,12.40
2022-11-04T10:38:53.929Z,12.40
2022-11-04T10:41:25.089Z,12.40
2022-11-04T10:43:58.700Z,12.40
2022-11-04T10:47:01.684Z,12.40
2022-11-04T10:49:38.472Z,12.40
2022-11-04T10:52:06.271Z,12.50
2022-11-04T10:54:39.237Z,12.50
2022-11-04T10:57:06.226Z,12.40
2022-11-04T10:59:43.182Z,12.50
2022-11-04T11:02:11.635Z,12.50
2022-11-04T11:04:41.171Z,12.50
2022-11-04T11:07:10.014Z,12.50
2022-11-04T11:09:54.116Z,12.50
2022-11-04T11:15:31.262Z,12.30
2022-11-04T11:18:17.393Z,12.30
2022-11-04T11:21:10.663Z,12.30
2022-11-04T11:23:40.471Z,12.40
2022-11-04T11:26:10.113Z,12.40
2022-11-04T11:28:39.757Z,12.30
2022-11-04T11:31:12.413Z,12.40
2022-11-04T11:33:53.872Z,12.50
2022-11-04T11:36:27.957Z,12.50
2022-11-04T11:38:55.140Z,12.50
2022-11-04T11:41:29.312Z,12.50
2022-11-04T11:43:56.448Z,12.60
2022-11-04T11:46:25.519Z,12.70
2022-11-04T11:48:54.187Z,12.70
2022-11-04T11:51:32.049Z,12.70
2022-11-04T11:54:18.587Z,12.80
2022-11-04T11:57:12.450Z,12.90
2022-11-04T12:02:45.945Z,13.00
2022-11-04T12:11:15.494Z,13.10
2022-11-04T12:14:03.172Z,13.00
2022-11-04T12:16:30.494Z,13.00
2022-11-04T12:18:57.597Z,13.00
2022-11-04T12:21:35.311Z,13.00
2022-11-04T12:24:09.031Z,13.00
2022-11-04T12:26:48.988Z,13.00
2022-11-04T12:29:37.436Z,13.10
2022-11-04T12:32:12.274Z,13.10
2022-11-04T12:34:39.541Z,13.20
2022-11-04T12:37:25.663Z,13.20
2022-11-04T12:40:07.847Z,13.30
2022-11-04T12:42:57.061Z,13.30
2022-11-04T12:45:25.064Z,13.40
2022-11-04T12:47:53.874Z,13.50
2022-11-04T12:50:28.329Z,13.50
2022-11-04T12:53:31.058Z,13.50
2022-11-04T12:56:00.693Z,13.50
2022-11-04T12:58:28.056Z,13.50
2022-11-04T13:00:59.684Z,13.30
2022-11-04T13:03:31.621Z,13.20
2022-11-04T13:06:02.357Z,13.10
2022-11-04T13:08:33.961Z,13.20
2022-11-04T13:11:28.570Z,13.20
2022-11-04T13:14:08.297Z,13.20
2022-11-04T13:16:44.956Z,13.20
2022-11-04T13:19:27.717Z,13.20
2022-11-04T13:21:57.353Z,13.20
2022-11-04T13:24:30.593Z,13.30
2022-11-04T13:27:03.656Z,13.20
2022-11-04T13:29:34.494Z,13.20
2022-11-04T13:32:04.990Z,13.10
2022-11-04T13:34:45.470Z,13.10
2022-11-04T13:37:50.880Z,13.10
2022-11-04T13:40:26.580Z,13.20
2022-11-04T13:43:34.854Z,13.30
2022-11-04T13:46:03.107Z,13.30
2022-11-04T13:48:33.620Z,13.40
2022-11-04T13:51:09.248Z,13.50
2022-11-04T13:53:49.144Z,13.50
2022-11-04T13:56:36.190Z,13.60
2022-11-04T13:59:37.602Z,13.60
2022-11-04T14:02:20.938Z,13.70
2022-11-04T14:04:49.104Z,13.70
2022-11-04T14:07:18.900Z,13.60
2022-11-04T14:09:45.804Z,13.60
2022-11-04T14:12:21.342Z,13.60
2022-11-04T14:14:52.963Z,13.60
2022-11-04T14:17:36.777Z,13.60
2022-11-04T14:20:22.466Z,13.50
2022-11-04T14:22:54.192Z,13.50
2022-11-04T14:25:24.800Z,13.50
2022-11-04T14:27:54.413Z,13.40
2022-11-04T14:30:34.040Z,13.50
2022-11-04T14:33:04.748Z,13.50
2022-11-04T14:35:33.385Z,13.40
2022-11-04T14:38:03.997Z,13.40
2022-11-04T14:40:47.837Z,13.40
2022-11-04T14:43:21.520Z,13.40
2022-11-04T14:45:49.255Z,13.40
2022-11-04T14:48:19.310Z,13.40
2022-11-04T14:50:50.014Z,13.30
2022-11-04T14:53:30.557Z,13.30
2022-11-04T14:56:19.058Z,13.20
2022-11-04T14:59:00.142Z,13.20
2022-11-04T15:01:34.557Z,13.10
2022-11-04T15:04:13.394Z,13.00
2022-11-04T15:06:57.697Z,13.00
2022-11-04T15:09:28.058Z,12.90
2022-11-04T15:12:21.852Z,12.90
2022-11-04T15:14:49.576Z,12.80
2022-11-04T15:17:20.233Z,12.70
2022-11-04T15:19:56.981Z,12.60
2022-11-04T15:22:25.559Z,12.50
2022-11-04T15:24:54.580Z,12.40
2022-11-04T15:27:27.029Z,12.40
2022-11-04T15:29:58.663Z,12.30
2022-11-04T15:32:26.348Z,12.30
2022-11-04T15:34:55.210Z,12.20
2022-11-04T15:37:25.059Z,12.20
2022-11-04T15:39:54.892Z,12.10
2022-11-04T15:42:44.666Z,12.10
2022-11-04T15:45:30.304Z,12.00
2022-11-04T15:48:17.981Z,11.90
2022-11-04T15:50:45.471Z,11.90
2022-11-04T15:53:16.251Z,11.80
2022-11-04T15:55:43.701Z,11.70
2022-11-04T15:58:12.920Z,11.70
2022-11-04T16:00:40.709Z,11.60
2022-11-04T16:03:17.596Z,11.60
2022-11-04T16:06:02.032Z,11.50
2022-11-04T16:08:30.836Z,11.50
2022-11-04T16:11:18.927Z,11.40
2022-11-04T16:13:47.532Z,11.30
2022-11-04T16:16:23.096Z,11.30
2022-11-04T16:18:57.788Z,11.20
2022-11-04T16:21:30.443Z,11.20
2022-11-04T16:24:00.231Z,11.20
2022-11-04T16:26:29.808Z,11.20
2022-11-04T16:28:58.464Z,11.20
2022-11-04T16:31:34.109Z,11.10
2022-11-04T16:34:02.891Z,11.10
2022-11-04T16:36:35.318Z,11.10
2022-11-04T16:39:05.331Z,11.00
2022-11-04T16:41:35.026Z,10.90
2022-11-04T16:44:04.813Z,10.80
2022-11-04T16:46:36.782Z,10.80
2022-11-04T16:49:04.171Z,10.70
2022-11-04T16:51:32.904Z,10.70
2022-11-04T16:54:00.575Z,10.70
2022-11-04T16:56:28.009Z,10.60
2022-11-04T16:58:55.438Z,10.60
2022-11-04T17:01:22.769Z,10.50
2022-11-04T17:03:50.167Z,10.50
2022-11-04T17:06:18.049Z,10.50
2022-11-04T17:08:44.982Z,10.40
2022-11-04T17:11:13.022Z,10.40
2022-11-04T17:13:40.634Z,10.40
2022-11-04T17:16:11.277Z,10.30
2022-11-04T17:18:40.064Z,10.30
2022-11-04T17:21:09.334Z,10.20
2022-11-04T17:23:36.920Z,10.20
2022-11-04T17:26:06.574Z,10.20
2022-11-04T17:28:37.934Z,10.10
2022-11-04T17:31:06.552Z,10.10
2022-11-04T17:33:35.306Z,10.10
2022-11-04T17:36:07.660Z,10.00
2022-11-04T17:38:36.619Z,10.00
2022-11-04T17:41:26.758Z,10.00
2022-11-04T17:44:03.502Z,9.90
2022-11-04T17:46:35.460Z,9.90
2022-11-04T17:49:06.104Z,9.90
2022-11-04T17:51:33.676Z,9.80
2022-11-04T17:54:01.299Z,9.70
2022-11-04T17:56:30.177Z,9.70
2022-11-04T17:59:04.456Z,9.70
2022-11-04T18:01:32.550Z,9.70
2022-11-04T18:04:00.156Z,9.70
2022-11-04T18:06:30.593Z,9.60
2022-11-04T18:08:58.585Z,9.60
2022-11-04T18:11:45.179Z,9.50
2022-11-04T18:14:16.901Z,9.50
2022-11-04T18:16:46.089Z,9.40
2022-11-04T18:19:15.399Z,9.40
2022-11-04T18:21:43.170Z,9.40
2022-11-04T18:24:10.134Z,9.40
2022-11-04T18:26:39.426Z,9.30
2022-11-04T18:29:07.126Z,9.30
2022-11-04T18:31:37.144Z,9.30
2022-11-04T18:34:07.047Z,9.30
2022-11-04T18:36:34.452Z,9.30
2022-11-04T18:39:01.594Z,9.20
2022-11-04T18:41:28.434Z,9.20
2022-11-04T18:43:55.165Z,9.20
2022-11-04T18:46:23.078Z,9.10
2022-11-04T18:48:51.855Z,9.10
2022-11-04T18:51:22.002Z,9.10
2022-11-04T18:53:50.319Z,9.10
2022-11-04T18:56:19.584Z,9.00
2022-11-04T18:58:47.721Z,9.00
2022-11-04T19:01:23.536Z,8.90
2022-11-04T19:03:51.441Z,8.90
2022-11-04T19:06:21.205Z,8.90
2022-11-04T19:08:52.170Z,8.80
2022-11-04T19:11:21.893Z,8.80
2022-11-04T19:14:09.564Z,8.90
2022-11-04T19:16:37.670Z,8.90
2022-11-04T19:19:07.385Z,8.90
2022-11-04T19:21:36.079Z,8.80
2022-11-04T19:24:05.950Z,8.80
2022-11-04T19:26:34.885Z,8.80
2022-11-04T19:29:06.336Z,8.90
2022-11-04T19:31:34.425Z,8.80
2022-11-04T19:34:07.834Z,8.80
2022-11-04T19:36:36.998Z,8.80
2022-11-04T19:39:05.000Z,8.80
2022-11-04T19:41:51.776Z,8.80
2022-11-04T19:44:23.182Z,8.80
2022-11-04T19:46:51.104Z,8.80
2022-11-04T19:49:20.105Z,8.90
2022-11-04T19:51:47.963Z,8.80
2022-11-04T19:54:18.114Z,8.80
2022-11-04T19:56:46.367Z,8.80
2022-11-04T19:59:14.175Z,8.80
2022-11-04T20:01:41.278Z,8.80
2022-11-04T20:04:12.966Z,8.80
2022-11-04T20:06:41.420Z,8.80
2022-11-04T20:09:12.168Z,8.80
2022-11-04T20:12:01.101Z,8.80
2022-11-04T20:14:29.963Z,8.80
2022-11-04T20:16:59.417Z,8.80
2022-11-04T20:19:27.436Z,8.80
2022-11-04T20:21:58.026Z,8.80
2022-11-04T20:24:25.661Z,8.80
2022-11-04T20:26:53.901Z,8.80
2022-11-04T20:29:24.874Z,8.90
2022-11-04T20:31:52.149Z,8.90
2022-11-04T20:34:19.797Z,8.90
2022-11-04T20:36:49.708Z,8.90
2022-11-04T20:39:19.242Z,8.90
2022-11-04T20:41:46.939Z,8.80
2022-11-04T20:44:15.149Z,8.80
2022-11-04T20:46:43.697Z,8.90
2022-11-04T20:49:15.275Z,8.90
2022-11-04T20:51:50.207Z,8.90
2022-11-04T20:54:22.133Z,8.90
2022-11-04T20:56:51.757Z,8.90
2022-11-04T20:59:22.416Z,8.90
2022-11-04T21:01:51.211Z,8.90
2022-11-04T21:04:20.659Z,8.90
2022-11-04T21:06:48.588Z,9.00
2022-11-04T21:09:18.567Z,9.00
2022-11-04T21:11:46.808Z,9.00
2022-11-04T21:14:20.406Z,9.00
2022-11-04T21:16:50.029Z,9.00
2022-11-04T21:19:17.046Z,9.00
2022-11-04T21:21:44.635Z,9.00
2022-11-04T21:24:15.828Z,9.00
2022-11-04T21:26:43.480Z,9.00
2022-11-04T21:29:12.791Z,9.00
2022-11-04T21:31:43.670Z,9.00
2022-11-04T21:34:11.580Z,9.00
2022-11-04T21:36:43.242Z,9.00
2022-11-04T21:39:12.130Z,9.00
2022-11-04T21:41:40.041Z,8.90
2022-11-04T21:44:11.367Z,8.90
2022-11-04T21:46:38.842Z,8.90
2022-11-04T21:49:08.322Z,8.90
2022-11-04T21:51:35.749Z,8.80
2022-11-04T21:54:05.428Z,8.80
2022-11-04T21:56:34.505Z,8.90
2022-11-04T21:59:02.964Z,8.90
2022-11-04T22:01:43.100Z,8.90
2022-11-04T22:04:11.393Z,8.90
2022-11-04T22:06:43.650Z,8.90
2022-11-04T22:09:11.229Z,8.90
2022-11-04T22:11:40.564Z,8.90
2022-11-04T22:14:12.274Z,8.90
2022-11-04T22:16:40.245Z,8.90
2022-11-04T22:19:11.380Z,8.90
2022-11-04T22:21:40.311Z,8.90
2022-11-04T22:24:08.980Z,8.90
2022-11-04T22:26:38.790Z,8.90
2022-11-04T22:29:06.655Z,8.90
2022-11-04T22:31:41.906Z,8.90
2022-11-04T22:34:10.912Z,8.90
2022-11-04T22:36:38.792Z,8.90
2022-11-04T22:39:10.546Z,8.90
2022-11-04T22:41:41.282Z,8.90
2022-11-04T22:44:10.031Z,8.90
2022-11-04T22:46:37.113Z,8.90
2022-11-04T22:49:04.401Z,9.00
2022-11-04T22:51:38.103Z,8.90
2022-11-04T22:54:08.578Z,8.90
2022-11-04T22:56:39.433Z,8.90
2022-11-04T22:59:10.243Z,8.90
2022-11-04T23:01:38.489Z,8.90
2022-11-04T23:04:07.073Z,8.90
2022-11-04T23:06:34.793Z,9.00
2022-11-04T23:09:01.628Z,9.00
2022-11-04T23:11:48.060Z,9.00
2022-11-04T23:14:35.472Z,8.90
2022-11-04T23:17:23.925Z,9.00
2022-11-04T23:19:52.274Z,9.00
2022-11-04T23:22:38.121Z,9.00
2022-11-04T23:25:09.921Z,9.00
2022-11-04T23:27:58.653Z,9.00
2022-11-04T23:30:29.933Z,9.00
2022-11-04T23:33:01.288Z,9.00
2022-11-04T23:35:54.904Z,9.00
2022-11-04T23:38:23.638Z,9.00
2022-11-04T23:41:17.311Z,9.00
2022-11-04T23:43:44.997Z,9.00
2022-11-04T23:46:36.549Z,9.00
2022-11-04T23:49:26.903Z,9.00
2022-11-04T23:52:13.097Z,9.00
2022-11-04T23:54:58.786Z,9.00
2022-11-04T23:57:44.722Z,9.00
